sensor_id;sensor_type;location;lat;lon;timestamp;temperature;humidity
35395;DHT22;21500;45.308;9.488;2022-09-27T12:16:52;23.00;99.90
35395;DHT22;21500;45.308;9.488;2022-09-27T12:19:27;23.20;99.90
35395;DHT22;21500;45.308;9.488;2022-09-27T12:25:20;23.90;99.90
35395;DHT22;21500;45.308;9.488;2022-09-27T12:28:49;24.50;99.90
35395;DHT22;21500;45.308;9.488;2022-09-27T12:37:50;24.30;99.90
35395;DHT22;21500;45.308;9.488;2022-09-27T12:41:23;24.60;99.90
35395;DHT22;21500;45.308;9.488;2022-09-27T12:44:12;24.00;99.90
35395;DHT22;21500;45.308;9.488;2022-09-27T12:50:42;23.90;99.50
35395;DHT22;21500;45.308;9.488;2022-09-27T12:53:41;23.80;99.70
35395;DHT22;21500;45.308;9.488;2022-09-27T13:13:15;24.70;99.60
35395;DHT22;21500;45.308;9.488;2022-09-27T13:49:30;25.50;96.30
35395;DHT22;21500;45.308;9.488;2022-09-27T13:52:41;24.90;95.90
35395;DHT22;21500;45.308;9.488;2022-09-27T14:05:12;24.80;95.70
35395;DHT22;21500;45.308;9.488;2022-09-27T14:08:37;24.40;95.80
35395;DHT22;21500;45.308;9.488;2022-09-27T14:11:36;23.80;96.70
35395;DHT22;21500;45.308;9.488;2022-09-27T15:02:42;24.30;96.10
35395;DHT22;21500;45.308;9.488;2022-09-27T15:05:18;24.50;95.60
35395;DHT22;21500;45.308;9.488;2022-09-27T15:07:47;24.60;95.30
35395;DHT22;21500;45.308;9.488;2022-09-27T15:10:21;24.20;95.20
35395;DHT22;21500;45.308;9.488;2022-09-27T15:12:50;24.20;95.60
35395;DHT22;21500;45.308;9.488;2022-09-27T15:15:28;24.30;95.70
35395;DHT22;21500;45.308;9.488;2022-09-27T15:18:01;24.20;96.00
35395;DHT22;21500;45.308;9.488;2022-09-27T15:20:30;24.00;96.10
35395;DHT22;21500;45.308;9.488;2022-09-27T15:23:03;23.90;95.80
35395;DHT22;21500;45.308;9.488;2022-09-27T15:25:41;23.90;96.10
35395;DHT22;21500;45.308;9.488;2022-09-27T15:28:17;23.70;95.80
35395;DHT22;21500;45.308;9.488;2022-09-27T15:30:54;23.50;95.20
35395;DHT22;21500;45.308;9.488;2022-09-27T15:33:29;23.50;95.20
35395;DHT22;21500;45.308;9.488;2022-09-27T15:36:03;23.60;95.60
35395;DHT22;21500;45.308;9.488;2022-09-27T15:38:39;23.60;95.90
35395;DHT22;21500;45.308;9.488;2022-09-27T15:41:18;23.50;95.40
35395;DHT22;21500;45.308;9.488;2022-09-27T16:05:19;28.10;91.20
35395;DHT22;21500;45.308;9.488;2022-09-27T16:08:21;26.70;91.60
35395;DHT22;21500;45.308;9.488;2022-09-27T16:14:01;25.90;91.80
35395;DHT22;21500;45.308;9.488;2022-09-27T16:17:30;26.00;91.50
35395;DHT22;21500;45.308;9.488;2022-09-27T16:27:58;28.70;89.20
35395;DHT22;21500;45.308;9.488;2022-09-27T16:39:26;27.70;90.50
35395;DHT22;21500;45.308;9.488;2022-09-27T16:54:03;23.30;95.10
35395;DHT22;21500;45.308;9.488;2022-09-27T17:24:46;21.60;97.80
35395;DHT22;21500;45.308;9.488;2022-09-27T17:27:45;21.40;98.40
35395;DHT22;21500;45.308;9.488;2022-09-27T17:30:28;21.30;98.70
35395;DHT22;21500;45.308;9.488;2022-09-27T17:35:39;21.20;98.80
35395;DHT22;21500;45.308;9.488;2022-09-27T17:38:10;21.20;98.80
35395;DHT22;21500;45.308;9.488;2022-09-27T17:40:36;21.10;99.00
35395;DHT22;21500;45.308;9.488;2022-09-27T17:43:04;21.10;99.00
35395;DHT22;21500;45.308;9.488;2022-09-27T17:45:33;21.10;99.10
35395;DHT22;21500;45.308;9.488;2022-09-27T17:48:01;21.00;99.00
35395;DHT22;21500;45.308;9.488;2022-09-27T17:50:48;21.00;99.00
35395;DHT22;21500;45.308;9.488;2022-09-27T17:53:16;20.90;99.20
35395;DHT22;21500;45.308;9.488;2022-09-27T17:55:45;20.80;99.40
35395;DHT22;21500;45.308;9.488;2022-09-27T17:58:15;20.70;99.60
35395;DHT22;21500;45.308;9.488;2022-09-27T18:00:41;20.70;99.50
35395;DHT22;21500;45.308;9.488;2022-09-27T18:03:07;20.60;99.80
35395;DHT22;21500;45.308;9.488;2022-09-27T18:05:33;20.50;99.70
35395;DHT22;21500;45.308;9.488;2022-09-27T18:08:01;20.50;99.40
35395;DHT22;21500;45.308;9.488;2022-09-27T18:10:28;20.50;99.50
35395;DHT22;21500;45.308;9.488;2022-09-27T18:12:53;20.50;99.50
35395;DHT22;21500;45.308;9.488;2022-09-27T18:15:20;20.50;99.60
35395;DHT22;21500;45.308;9.488;2022-09-27T18:17:49;20.50;99.60
35395;DHT22;21500;45.308;9.488;2022-09-27T18:20:15;20.40;99.80
35395;DHT22;21500;45.308;9.488;2022-09-27T18:22:41;20.30;99.90
35395;DHT22;21500;45.308;9.488;2022-09-27T18:25:07;20.20;99.90
35395;DHT22;21500;45.308;9.488;2022-09-27T18:27:33;20.10;99.90
35395;DHT22;21500;45.308;9.488;2022-09-27T18:30:02;20.10;99.90
35395;DHT22;21500;45.308;9.488;2022-09-27T18:32:29;20.20;99.90
35395;DHT22;21500;45.308;9.488;2022-09-27T18:34:55;20.10;99.90
35395;DHT22;21500;45.308;9.488;2022-09-27T18:37:20;20.20;99.90
35395;DHT22;21500;45.308;9.488;2022-09-27T18:39:52;20.10;99.90
35395;DHT22;21500;45.308;9.488;2022-09-27T18:42:47;20.00;99.90
35395;DHT22;21500;45.308;9.488;2022-09-27T18:47:55;19.70;99.90
35395;DHT22;21500;45.308;9.488;2022-09-27T18:56:17;19.60;99.90
35395;DHT22;21500;45.308;9.488;2022-09-27T18:58:47;19.70;99.90
35395;DHT22;21500;45.308;9.488;2022-09-27T19:01:15;19.70;99.90
35395;DHT22;21500;45.308;9.488;2022-09-27T19:03:42;19.70;99.90
35395;DHT22;21500;45.308;9.488;2022-09-27T19:06:19;19.70;99.90
35395;DHT22;21500;45.308;9.488;2022-09-27T19:08:53;19.60;99.90
35395;DHT22;21500;45.308;9.488;2022-09-27T19:16:56;19.50;99.90
35395;DHT22;21500;45.308;9.488;2022-09-27T19:19:36;19.50;99.90
35395;DHT22;21500;45.308;9.488;2022-09-27T19:27:29;19.50;99.90
35395;DHT22;21500;45.308;9.488;2022-09-27T19:35:17;19.40;99.90
35395;DHT22;21500;45.308;9.488;2022-09-27T19:37:52;19.30;99.90
35395;DHT22;21500;45.308;9.488;2022-09-27T19:40:20;19.20;99.90
35395;DHT22;21500;45.308;9.488;2022-09-27T19:42:57;19.20;99.90
35395;DHT22;21500;45.308;9.488;2022-09-27T19:45:24;19.10;99.90
35395;DHT22;21500;45.308;9.488;2022-09-27T19:47:57;19.20;99.90
35395;DHT22;21500;45.308;9.488;2022-09-27T19:50:24;19.20;99.90
35395;DHT22;21500;45.308;9.488;2022-09-27T19:52:50;19.20;99.90
35395;DHT22;21500;45.308;9.488;2022-09-27T19:55:16;19.10;99.90
35395;DHT22;21500;45.308;9.488;2022-09-27T19:57:41;19.20;99.90
35395;DHT22;21500;45.308;9.488;2022-09-27T20:00:08;19.10;99.90
35395;DHT22;21500;45.308;9.488;2022-09-27T20:02:34;18.90;99.90
35395;DHT22;21500;45.308;9.488;2022-09-27T20:05:02;18.90;99.90
35395;DHT22;21500;45.308;9.488;2022-09-27T20:07:28;18.80;99.90
35395;DHT22;21500;45.308;9.488;2022-09-27T20:09:54;18.90;99.90
35395;DHT22;21500;45.308;9.488;2022-09-27T20:12:19;18.80;99.90
35395;DHT22;21500;45.308;9.488;2022-09-27T20:14:45;18.70;99.90
35395;DHT22;21500;45.308;9.488;2022-09-27T20:17:11;18.70;99.90
35395;DHT22;21500;45.308;9.488;2022-09-27T20:19:37;18.60;99.90
35395;DHT22;21500;45.308;9.488;2022-09-27T20:22:04;18.50;99.90
35395;DHT22;21500;45.308;9.488;2022-09-27T20:24:32;18.40;99.90
35395;DHT22;21500;45.308;9.488;2022-09-27T20:26:57;18.30;99.90
35395;DHT22;21500;45.308;9.488;2022-09-27T20:29:23;18.10;99.90
35395;DHT22;21500;45.308;9.488;2022-09-27T20:31:49;18.00;99.90
35395;DHT22;21500;45.308;9.488;2022-09-27T20:34:15;17.90;99.90
35395;DHT22;21500;45.308;9.488;2022-09-27T20:36:42;17.80;99.90
35395;DHT22;21500;45.308;9.488;2022-09-27T20:39:13;17.80;99.90
35395;DHT22;21500;45.308;9.488;2022-09-27T20:41:42;17.80;99.90
